sensor_id;sensor_type;location;lat;lon;timestamp;temperature;humidity
33715;DHT22;20043;50.998;4.754;2022-07-18T00:01:01;18.70;99.90
33715;DHT22;20043;50.998;4.754;2022-07-18T00:03:27;18.70;99.90
33715;DHT22;20043;50.998;4.754;2022-07-18T00:05:53;18.70;99.90
33715;DHT22;20043;50.998;4.754;2022-07-18T00:08:19;18.80;99.90
33715;DHT22;20043;50.998;4.754;2022-07-18T00:10:44;18.70;99.90
33715;DHT22;20043;50.998;4.754;2022-07-18T00:13:10;18.60;99.90
33715;DHT22;20043;50.998;4.754;2022-07-18T00:15:36;18.50;99.90
33715;DHT22;20043;50.998;4.754;2022-07-18T00:18:02;18.50;99.90
33715;DHT22;20043;50.998;4.754;2022-07-18T00:20:28;18.50;99.90
33715;DHT22;20043;50.998;4.754;2022-07-18T00:22:54;18.50;99.90
33715;DHT22;20043;50.998;4.754;2022-07-18T00:25:20;18.40;99.90
33715;DHT22;20043;50.998;4.754;2022-07-18T00:27:46;18.40;99.90
33715;DHT22;20043;50.998;4.754;2022-07-18T00:30:12;18.40;99.90
33715;DHT22;20043;50.998;4.754;2022-07-18T00:32:38;18.30;99.90
33715;DHT22;20043;50.998;4.754;2022-07-18T00:35:04;18.30;99.90
33715;DHT22;20043;50.998;4.754;2022-07-18T00:37:29;18.20;99.90
33715;DHT22;20043;50.998;4.754;2022-07-18T00:39:55;18.20;99.90
33715;DHT22;20043;50.998;4.754;2022-07-18T00:42:21;18.10;99.90
33715;DHT22;20043;50.998;4.754;2022-07-18T00:44:46;18.10;99.90
33715;DHT22;20043;50.998;4.754;2022-07-18T00:47:12;18.10;99.90
33715;DHT22;20043;50.998;4.754;2022-07-18T00:49:38;18.10;99.90
33715;DHT22;20043;50.998;4.754;2022-07-18T00:52:04;18.00;99.90
33715;DHT22;20043;50.998;4.754;2022-07-18T00:54:30;18.00;99.90
33715;DHT22;20043;50.998;4.754;2022-07-18T00:56:58;18.00;99.90
33715;DHT22;20043;50.998;4.754;2022-07-18T00:59:24;18.00;99.90
33715;DHT22;20043;50.998;4.754;2022-07-18T01:02:10;18.10;99.90
33715;DHT22;20043;50.998;4.754;2022-07-18T01:04:36;18.00;99.90
33715;DHT22;20043;50.998;4.754;2022-07-18T01:07:02;17.90;99.90
33715;DHT22;20043;50.998;4.754;2022-07-18T01:09:28;17.80;99.90
33715;DHT22;20043;50.998;4.754;2022-07-18T01:11:53;17.70;99.90
33715;DHT22;20043;50.998;4.754;2022-07-18T01:14:19;17.80;99.90
33715;DHT22;20043;50.998;4.754;2022-07-18T01:16:45;17.80;99.90
33715;DHT22;20043;50.998;4.754;2022-07-18T01:19:11;17.80;99.90
33715;DHT22;20043;50.998;4.754;2022-07-18T01:21:37;17.80;99.90
33715;DHT22;20043;50.998;4.754;2022-07-18T01:24:04;17.90;99.90
33715;DHT22;20043;50.998;4.754;2022-07-18T01:26:30;17.80;99.90
33715;DHT22;20043;50.998;4.754;2022-07-18T01:28:56;17.80;99.90
33715;DHT22;20043;50.998;4.754;2022-07-18T01:31:21;17.80;99.90
33715;DHT22;20043;50.998;4.754;2022-07-18T01:33:47;17.70;99.90
33715;DHT22;20043;50.998;4.754;2022-07-18T01:36:12;17.70;99.90
33715;DHT22;20043;50.998;4.754;2022-07-18T01:38:38;17.70;99.90
33715;DHT22;20043;50.998;4.754;2022-07-18T01:41:04;17.60;99.90
33715;DHT22;20043;50.998;4.754;2022-07-18T01:43:30;17.70;99.90
33715;DHT22;20043;50.998;4.754;2022-07-18T01:45:55;17.70;99.90
33715;DHT22;20043;50.998;4.754;2022-07-18T01:48:21;17.60;99.90
33715;DHT22;20043;50.998;4.754;2022-07-18T01:50:48;17.50;99.90
33715;DHT22;20043;50.998;4.754;2022-07-18T01:53:14;17.40;99.90
33715;DHT22;20043;50.998;4.754;2022-07-18T01:55:40;17.40;99.90
33715;DHT22;20043;50.998;4.754;2022-07-18T01:58:05;17.40;99.90
33715;DHT22;20043;50.998;4.754;2022-07-18T02:00:31;17.40;99.90
33715;DHT22;20043;50.998;4.754;2022-07-18T02:02:57;17.40;99.90
33715;DHT22;20043;50.998;4.754;2022-07-18T02:05:23;17.20;99.90
33715;DHT22;20043;50.998;4.754;2022-07-18T02:07:49;17.20;99.90
33715;DHT22;20043;50.998;4.754;2022-07-18T02:10:16;17.20;99.90
33715;DHT22;20043;50.998;4.754;2022-07-18T02:12:42;17.20;99.90
33715;DHT22;20043;50.998;4.754;2022-07-18T02:15:10;17.30;99.90
33715;DHT22;20043;50.998;4.754;2022-07-18T02:17:36;17.20;99.90
33715;DHT22;20043;50.998;4.754;2022-07-18T02:20:03;17.20;99.90
33715;DHT22;20043;50.998;4.754;2022-07-18T02:22:29;17.10;99.90
33715;DHT22;20043;50.998;4.754;2022-07-18T02:24:55;17.00;99.90
33715;DHT22;20043;50.998;4.754;2022-07-18T02:27:20;17.10;99.90
33715;DHT22;20043;50.998;4.754;2022-07-18T02:29:46;17.10;99.90
33715;DHT22;20043;50.998;4.754;2022-07-18T02:32:12;17.10;99.90
33715;DHT22;20043;50.998;4.754;2022-07-18T02:34:38;17.00;99.90
33715;DHT22;20043;50.998;4.754;2022-07-18T02:37:03;17.10;99.90
33715;DHT22;20043;50.998;4.754;2022-07-18T02:39:29;17.10;99.90
33715;DHT22;20043;50.998;4.754;2022-07-18T02:41:56;16.90;99.90
33715;DHT22;20043;50.998;4.754;2022-07-18T02:44:21;17.00;99.90
33715;DHT22;20043;50.998;4.754;2022-07-18T02:46:47;17.00;99.90
33715;DHT22;20043;50.998;4.754;2022-07-18T02:49:13;16.90;99.90
33715;DHT22;20043;50.998;4.754;2022-07-18T02:52:12;16.80;99.90
33715;DHT22;20043;50.998;4.754;2022-07-18T02:54:39;16.80;99.90
33715;DHT22;20043;50.998;4.754;2022-07-18T02:57:05;16.80;99.90
33715;DHT22;20043;50.998;4.754;2022-07-18T02:59:31;16.80;99.90
33715;DHT22;20043;50.998;4.754;2022-07-18T03:01:57;16.70;99.90
33715;DHT22;20043;50.998;4.754;2022-07-18T03:04:23;16.60;99.90
33715;DHT22;20043;50.998;4.754;2022-07-18T03:06:49;16.50;99.90
33715;DHT22;20043;50.998;4.754;2022-07-18T03:09:15;16.60;99.90
33715;DHT22;20043;50.998;4.754;2022-07-18T03:11:41;16.50;99.90
33715;DHT22;20043;50.998;4.754;2022-07-18T03:14:07;16.50;99.90
33715;DHT22;20043;50.998;4.754;2022-07-18T03:16:33;16.50;99.90
33715;DHT22;20043;50.998;4.754;2022-07-18T03:19:00;16.50;99.90
33715;DHT22;20043;50.998;4.754;2022-07-18T03:21:25;16.50;99.90
33715;DHT22;20043;50.998;4.754;2022-07-18T03:23:51;16.40;99.90
33715;DHT22;20043;50.998;4.754;2022-07-18T03:26:17;16.40;99.90
33715;DHT22;20043;50.998;4.754;2022-07-18T03:28:49;16.40;99.90
33715;DHT22;20043;50.998;4.754;2022-07-18T03:31:15;16.30;99.90
33715;DHT22;20043;50.998;4.754;2022-07-18T03:33:41;16.40;99.90
33715;DHT22;20043;50.998;4.754;2022-07-18T03:36:07;16.30;99.90
33715;DHT22;20043;50.998;4.754;2022-07-18T03:38:32;16.30;99.90
33715;DHT22;20043;50.998;4.754;2022-07-18T03:40:58;16.30;99.90
33715;DHT22;20043;50.998;4.754;2022-07-18T03:43:24;16.20;99.90
33715;DHT22;20043;50.998;4.754;2022-07-18T03:45:49;16.10;99.90
33715;DHT22;20043;50.998;4.754;2022-07-18T03:48:15;16.10;99.90
33715;DHT22;20043;50.998;4.754;2022-07-18T03:50:40;16.20;99.90
33715;DHT22;20043;50.998;4.754;2022-07-18T03:53:06;16.20;99.90
33715;DHT22;20043;50.998;4.754;2022-07-18T03:55:32;16.20;99.90
33715;DHT22;20043;50.998;4.754;2022-07-18T03:57:57;16.20;99.90
33715;DHT22;20043;50.998;4.754;2022-07-18T04:00:23;16.10;99.90
33715;DHT22;20043;50.998;4.754;2022-07-18T04:02:48;16.00;99.90
33715;DHT22;20043;50.998;4.754;2022-07-18T04:05:15;16.10;99.90
33715;DHT22;20043;50.998;4.754;2022-07-18T04:07:41;16.10;99.90
33715;DHT22;20043;50.998;4.754;2022-07-18T04:10:08;16.00;99.90
33715;DHT22;20043;50.998;4.754;2022-07-18T04:12:34;16.00;99.90
33715;DHT22;20043;50.998;4.754;2022-07-18T04:15:00;15.90;99.90
33715;DHT22;20043;50.998;4.754;2022-07-18T04:17:26;16.00;99.90
33715;DHT22;20043;50.998;4.754;2022-07-18T04:19:51;16.00;99.90
33715;DHT22;20043;50.998;4.754;2022-07-18T04:22:17;16.10;99.90
33715;DHT22;20043;50.998;4.754;2022-07-18T04:24:43;16.10;99.90
33715;DHT22;20043;50.998;4.754;2022-07-18T04:27:09;16.20;99.90
33715;DHT22;20043;50.998;4.754;2022-07-18T04:29:34;16.20;99.90
33715;DHT22;20043;50.998;4.754;2022-07-18T04:32:02;16.20;99.90
33715;DHT22;20043;50.998;4.754;2022-07-18T04:34:27;16.30;99.90
33715;DHT22;20043;50.998;4.754;2022-07-18T04:36:53;16.40;99.90
33715;DHT22;20043;50.998;4.754;2022-07-18T04:39:18;16.70;99.90
33715;DHT22;20043;50.998;4.754;2022-07-18T04:41:44;16.90;99.90
33715;DHT22;20043;50.998;4.754;2022-07-18T04:44:10;17.20;99.90
33715;DHT22;20043;50.998;4.754;2022-07-18T04:46:36;17.40;99.90
33715;DHT22;20043;50.998;4.754;2022-07-18T04:49:02;17.60;99.90
33715;DHT22;20043;50.998;4.754;2022-07-18T04:51:27;17.90;99.90
33715;DHT22;20043;50.998;4.754;2022-07-18T04:53:53;18.20;99.90
33715;DHT22;20043;50.998;4.754;2022-07-18T04:56:21;18.60;99.90
33715;DHT22;20043;50.998;4.754;2022-07-18T04:58:46;19.00;99.90
33715;DHT22;20043;50.998;4.754;2022-07-18T05:01:12;19.40;99.90
33715;DHT22;20043;50.998;4.754;2022-07-18T05:03:37;19.90;99.90
33715;DHT22;20043;50.998;4.754;2022-07-18T05:06:03;20.30;99.90
33715;DHT22;20043;50.998;4.754;2022-07-18T05:08:29;20.80;99.90
33715;DHT22;20043;50.998;4.754;2022-07-18T05:11:01;21.20;99.90
33715;DHT22;20043;50.998;4.754;2022-07-18T05:13:27;21.70;99.90
33715;DHT22;20043;50.998;4.754;2022-07-18T05:15:52;22.10;99.90
33715;DHT22;20043;50.998;4.754;2022-07-18T05:18:18;22.50;99.90
33715;DHT22;20043;50.998;4.754;2022-07-18T05:20:44;23.00;99.90
33715;DHT22;20043;50.998;4.754;2022-07-18T05:23:10;23.40;99.90
33715;DHT22;20043;50.998;4.754;2022-07-18T05:25:35;23.70;99.90
33715;DHT22;20043;50.998;4.754;2022-07-18T05:28:01;23.90;99.90
33715;DHT22;20043;50.998;4.754;2022-07-18T05:30:27;24.20;99.70
33715;DHT22;20043;50.998;4.754;2022-07-18T05:32:52;24.30;98.90
33715;DHT22;20043;50.998;4.754;2022-07-18T05:35:19;24.50;98.50
33715;DHT22;20043;50.998;4.754;2022-07-18T05:37:45;24.90;98.30
33715;DHT22;20043;50.998;4.754;2022-07-18T05:40:12;25.20;97.80
33715;DHT22;20043;50.998;4.754;2022-07-18T05:42:38;25.60;97.40
33715;DHT22;20043;50.998;4.754;2022-07-18T05:45:06;25.90;96.70
33715;DHT22;20043;50.998;4.754;2022-07-18T05:47:32;26.10;96.60
33715;DHT22;20043;50.998;4.754;2022-07-18T05:49:57;26.30;96.00
33715;DHT22;20043;50.998;4.754;2022-07-18T05:52:23;26.40;96.00
33715;DHT22;20043;50.998;4.754;2022-07-18T05:54:48;26.80;95.70
33715;DHT22;20043;50.998;4.754;2022-07-18T05:57:14;26.70;95.70
33715;DHT22;20043;50.998;4.754;2022-07-18T05:59:40;26.50;95.40
33715;DHT22;20043;50.998;4.754;2022-07-18T06:02:06;26.50;95.50
33715;DHT22;20043;50.998;4.754;2022-07-18T06:04:32;26.80;95.70
33715;DHT22;20043;50.998;4.754;2022-07-18T06:06:57;27.20;95.00
33715;DHT22;20043;50.998;4.754;2022-07-18T06:09:23;27.50;93.20
33715;DHT22;20043;50.998;4.754;2022-07-18T06:11:49;27.50;93.70
33715;DHT22;20043;50.998;4.754;2022-07-18T06:14:15;27.70;94.20
33715;DHT22;20043;50.998;4.754;2022-07-18T06:16:41;27.90;93.60
33715;DHT22;20043;50.998;4.754;2022-07-18T06:19:07;28.00;91.90
33715;DHT22;20043;50.998;4.754;2022-07-18T06:21:32;28.10;92.00
33715;DHT22;20043;50.998;4.754;2022-07-18T06:23:58;28.20;91.20
33715;DHT22;20043;50.998;4.754;2022-07-18T06:26:23;28.30;90.80
33715;DHT22;20043;50.998;4.754;2022-07-18T06:28:49;28.30;89.50
33715;DHT22;20043;50.998;4.754;2022-07-18T06:31:15;28.20;90.00
33715;DHT22;20043;50.998;4.754;2022-07-18T06:33:42;27.90;90.00
33715;DHT22;20043;50.998;4.754;2022-07-18T06:36:08;27.80;91.80
33715;DHT22;20043;50.998;4.754;2022-07-18T06:38:34;27.80;90.20
33715;DHT22;20043;50.998;4.754;2022-07-18T06:40:59;27.70;90.70
33715;DHT22;20043;50.998;4.754;2022-07-18T06:43:31;27.30;90.70
33715;DHT22;20043;50.998;4.754;2022-07-18T06:45:57;27.40;91.70
33715;DHT22;20043;50.998;4.754;2022-07-18T06:48:23;27.40;90.50
33715;DHT22;20043;50.998;4.754;2022-07-18T06:50:49;27.50;90.00
33715;DHT22;20043;50.998;4.754;2022-07-18T06:53:14;27.50;89.40
33715;DHT22;20043;50.998;4.754;2022-07-18T06:55:40;27.30;90.30
33715;DHT22;20043;50.998;4.754;2022-07-18T06:58:06;27.20;90.40
33715;DHT22;20043;50.998;4.754;2022-07-18T07:00:31;27.30;91.00
33715;DHT22;20043;50.998;4.754;2022-07-18T07:02:57;27.30;90.70
33715;DHT22;20043;50.998;4.754;2022-07-18T07:05:22;27.50;90.80
33715;DHT22;20043;50.998;4.754;2022-07-18T07:07:54;27.20;91.00
33715;DHT22;20043;50.998;4.754;2022-07-18T07:10:26;27.40;91.10
33715;DHT22;20043;50.998;4.754;2022-07-18T07:12:52;27.60;89.50
33715;DHT22;20043;50.998;4.754;2022-07-18T07:15:20;27.60;90.40
33715;DHT22;20043;50.998;4.754;2022-07-18T07:17:46;27.50;91.60
33715;DHT22;20043;50.998;4.754;2022-07-18T07:20:13;27.50;90.20
33715;DHT22;20043;50.998;4.754;2022-07-18T07:22:43;27.40;91.10
33715;DHT22;20043;50.998;4.754;2022-07-18T07:25:09;27.50;90.70
33715;DHT22;20043;50.998;4.754;2022-07-18T07:27:35;27.50;90.10
33715;DHT22;20043;50.998;4.754;2022-07-18T07:30:00;27.50;87.80
33715;DHT22;20043;50.998;4.754;2022-07-18T07:32:26;27.20;90.30
33715;DHT22;20043;50.998;4.754;2022-07-18T07:34:51;27.10;90.70
33715;DHT22;20043;50.998;4.754;2022-07-18T07:37:17;27.10;91.30
33715;DHT22;20043;50.998;4.754;2022-07-18T07:39:49;27.20;91.70
33715;DHT22;20043;50.998;4.754;2022-07-18T07:42:15;27.10;89.30
33715;DHT22;20043;50.998;4.754;2022-07-18T07:44:40;27.10;89.50
33715;DHT22;20043;50.998;4.754;2022-07-18T07:47:06;26.90;90.40
33715;DHT22;20043;50.998;4.754;2022-07-18T07:49:32;26.60;89.30
33715;DHT22;20043;50.998;4.754;2022-07-18T07:51:59;26.40;89.70
33715;DHT22;20043;50.998;4.754;2022-07-18T07:54:25;26.20;88.90
33715;DHT22;20043;50.998;4.754;2022-07-18T07:56:50;26.10;90.50
33715;DHT22;20043;50.998;4.754;2022-07-18T07:59:16;26.00;90.90
33715;DHT22;20043;50.998;4.754;2022-07-18T08:01:42;26.20;91.40
33715;DHT22;20043;50.998;4.754;2022-07-18T08:04:07;26.30;90.70
33715;DHT22;20043;50.998;4.754;2022-07-18T08:06:33;26.40;91.00
33715;DHT22;20043;50.998;4.754;2022-07-18T08:08:58;26.50;91.00
33715;DHT22;20043;50.998;4.754;2022-07-18T08:11:24;26.80;90.00
33715;DHT22;20043;50.998;4.754;2022-07-18T08:13:50;27.00;91.10
33715;DHT22;20043;50.998;4.754;2022-07-18T08:16:15;27.30;89.80
33715;DHT22;20043;50.998;4.754;2022-07-18T08:18:41;27.50;89.40
33715;DHT22;20043;50.998;4.754;2022-07-18T08:21:07;27.60;89.50
33715;DHT22;20043;50.998;4.754;2022-07-18T08:23:32;27.70;90.10
33715;DHT22;20043;50.998;4.754;2022-07-18T08:25:58;27.80;90.30
33715;DHT22;20043;50.998;4.754;2022-07-18T08:28:23;27.90;89.10
33715;DHT22;20043;50.998;4.754;2022-07-18T08:30:50;28.20;87.50
33715;DHT22;20043;50.998;4.754;2022-07-18T08:33:15;28.30;86.50
33715;DHT22;20043;50.998;4.754;2022-07-18T08:35:41;28.20;86.00
33715;DHT22;20043;50.998;4.754;2022-07-18T08:38:07;28.20;89.70
33715;DHT22;20043;50.998;4.754;2022-07-18T08:40:32;28.20;89.20
33715;DHT22;20043;50.998;4.754;2022-07-18T08:42:59;28.20;87.60
33715;DHT22;20043;50.998;4.754;2022-07-18T08:45:25;28.10;89.00
33715;DHT22;20043;50.998;4.754;2022-07-18T08:47:51;28.20;87.80
33715;DHT22;20043;50.998;4.754;2022-07-18T08:50:18;28.40;88.70
33715;DHT22;20043;50.998;4.754;2022-07-18T08:52:44;28.50;86.90
33715;DHT22;20043;50.998;4.754;2022-07-18T08:55:11;28.60;85.70
33715;DHT22;20043;50.998;4.754;2022-07-18T08:57:37;28.60;85.10
33715;DHT22;20043;50.998;4.754;2022-07-18T09:00:11;28.60;86.40
33715;DHT22;20043;50.998;4.754;2022-07-18T09:02:37;28.70;89.60
33715;DHT22;20043;50.998;4.754;2022-07-18T09:05:04;28.80;88.30
33715;DHT22;20043;50.998;4.754;2022-07-18T09:07:32;28.90;87.00
33715;DHT22;20043;50.998;4.754;2022-07-18T09:10:00;29.10;89.40
33715;DHT22;20043;50.998;4.754;2022-07-18T09:12:28;29.40;86.60
33715;DHT22;20043;50.998;4.754;2022-07-18T09:14:57;29.60;86.10
33715;DHT22;20043;50.998;4.754;2022-07-18T09:17:25;30.00;86.30
33715;DHT22;20043;50.998;4.754;2022-07-18T09:20:03;30.30;86.70
33715;DHT22;20043;50.998;4.754;2022-07-18T09:22:31;30.30;85.20
33715;DHT22;20043;50.998;4.754;2022-07-18T09:25:12;30.40;85.60
33715;DHT22;20043;50.998;4.754;2022-07-18T09:27:51;30.50;82.90
33715;DHT22;20043;50.998;4.754;2022-07-18T09:30:31;30.50;85.40
33715;DHT22;20043;50.998;4.754;2022-07-18T09:35:50;30.70;82.30
33715;DHT22;20043;50.998;4.754;2022-07-18T09:38:21;30.70;79.20
33715;DHT22;20043;50.998;4.754;2022-07-18T09:40:56;30.50;78.70
33715;DHT22;20043;50.998;4.754;2022-07-18T09:43:25;30.50;83.00
33715;DHT22;20043;50.998;4.754;2022-07-18T09:45:54;30.60;82.10
33715;DHT22;20043;50.998;4.754;2022-07-18T09:48:22;30.60;79.90
33715;DHT22;20043;50.998;4.754;2022-07-18T09:51:00;30.60;79.20
33715;DHT22;20043;50.998;4.754;2022-07-18T09:53:33;30.80;82.30
33715;DHT22;20043;50.998;4.754;2022-07-18T09:56:01;31.10;82.70
33715;DHT22;20043;50.998;4.754;2022-07-18T09:58:30;31.30;79.70
33715;DHT22;20043;50.998;4.754;2022-07-18T10:00:58;31.40;81.50
33715;DHT22;20043;50.998;4.754;2022-07-18T10:03:24;31.70;79.40
33715;DHT22;20043;50.998;4.754;2022-07-18T10:05:53;31.60;78.20
33715;DHT22;20043;50.998;4.754;2022-07-18T10:08:22;31.70;80.20
33715;DHT22;20043;50.998;4.754;2022-07-18T10:10:50;31.80;77.30
33715;DHT22;20043;50.998;4.754;2022-07-18T10:13:17;32.00;79.70
33715;DHT22;20043;50.998;4.754;2022-07-18T10:15:45;32.00;78.50
33715;DHT22;20043;50.998;4.754;2022-07-18T10:18:13;32.20;76.50
33715;DHT22;20043;50.998;4.754;2022-07-18T10:20:50;32.20;78.20
33715;DHT22;20043;50.998;4.754;2022-07-18T10:23:27;32.30;78.60
33715;DHT22;20043;50.998;4.754;2022-07-18T10:33:47;32.40;75.20
33715;DHT22;20043;50.998;4.754;2022-07-18T10:36:18;32.60;79.40
33715;DHT22;20043;50.998;4.754;2022-07-18T10:39:17;32.80;77.30
33715;DHT22;20043;50.998;4.754;2022-07-18T11:00:37;32.80;73.10
33715;DHT22;20043;50.998;4.754;2022-07-18T11:03:08;33.00;71.50
33715;DHT22;20043;50.998;4.754;2022-07-18T11:05:44;33.10;68.60
33715;DHT22;20043;50.998;4.754;2022-07-18T11:15:54;33.50;74.60
33715;DHT22;20043;50.998;4.754;2022-07-18T11:18:20;33.60;71.20
33715;DHT22;20043;50.998;4.754;2022-07-18T11:20:46;33.80;69.70
33715;DHT22;20043;50.998;4.754;2022-07-18T11:23:39;34.00;71.60
33715;DHT22;20043;50.998;4.754;2022-07-18T11:26:16;33.80;68.70
33715;DHT22;20043;50.998;4.754;2022-07-18T11:28:42;33.80;72.50
33715;DHT22;20043;50.998;4.754;2022-07-18T11:31:10;33.80;71.10
33715;DHT22;20043;50.998;4.754;2022-07-18T11:33:38;33.90;66.70
33715;DHT22;20043;50.998;4.754;2022-07-18T11:36:10;34.00;70.60
33715;DHT22;20043;50.998;4.754;2022-07-18T11:38:38;34.30;70.20
33715;DHT22;20043;50.998;4.754;2022-07-18T11:41:05;34.40;70.90
33715;DHT22;20043;50.998;4.754;2022-07-18T11:43:31;34.50;68.00
33715;DHT22;20043;50.998;4.754;2022-07-18T11:48:26;34.90;68.00
33715;DHT22;20043;50.998;4.754;2022-07-18T11:50:52;34.90;65.50
33715;DHT22;20043;50.998;4.754;2022-07-18T11:53:17;34.80;63.00
33715;DHT22;20043;50.998;4.754;2022-07-18T11:55:43;34.80;66.60
33715;DHT22;20043;50.998;4.754;2022-07-18T11:58:11;34.80;66.00
33715;DHT22;20043;50.998;4.754;2022-07-18T12:00:37;34.80;65.70
33715;DHT22;20043;50.998;4.754;2022-07-18T12:03:21;34.90;64.40
33715;DHT22;20043;50.998;4.754;2022-07-18T12:05:52;34.70;62.70
33715;DHT22;20043;50.998;4.754;2022-07-18T12:16:37;34.50;63.10
33715;DHT22;20043;50.998;4.754;2022-07-18T12:21:52;34.50;63.80
33715;DHT22;20043;50.998;4.754;2022-07-18T12:30:11;35.00;61.90
33715;DHT22;20043;50.998;4.754;2022-07-18T12:32:56;35.00;60.00
33715;DHT22;20043;50.998;4.754;2022-07-18T12:35:27;35.20;62.00
33715;DHT22;20043;50.998;4.754;2022-07-18T12:40:18;35.40;61.80
33715;DHT22;20043;50.998;4.754;2022-07-18T12:42:44;35.30;58.60
33715;DHT22;20043;50.998;4.754;2022-07-18T12:45:11;35.20;58.90
33715;DHT22;20043;50.998;4.754;2022-07-18T12:47:38;35.00;58.40
33715;DHT22;20043;50.998;4.754;2022-07-18T12:50:05;35.00;61.10
33715;DHT22;20043;50.998;4.754;2022-07-18T12:52:31;34.90;59.40
33715;DHT22;20043;50.998;4.754;2022-07-18T12:54:57;34.80;60.00
33715;DHT22;20043;50.998;4.754;2022-07-18T12:57:23;34.90;59.70
33715;DHT22;20043;50.998;4.754;2022-07-18T12:59:49;35.10;58.60
33715;DHT22;20043;50.998;4.754;2022-07-18T13:02:15;35.10;59.40
33715;DHT22;20043;50.998;4.754;2022-07-18T13:04:41;34.90;64.20
33715;DHT22;20043;50.998;4.754;2022-07-18T13:07:06;34.70;56.70
33715;DHT22;20043;50.998;4.754;2022-07-18T13:09:32;34.70;59.40
33715;DHT22;20043;50.998;4.754;2022-07-18T13:11:59;34.90;58.60
33715;DHT22;20043;50.998;4.754;2022-07-18T13:14:25;35.20;59.20
33715;DHT22;20043;50.998;4.754;2022-07-18T13:16:50;35.40;57.50
33715;DHT22;20043;50.998;4.754;2022-07-18T13:19:18;35.50;59.50
33715;DHT22;20043;50.998;4.754;2022-07-18T13:21:45;35.60;57.90
33715;DHT22;20043;50.998;4.754;2022-07-18T13:24:11;35.70;60.30
33715;DHT22;20043;50.998;4.754;2022-07-18T13:26:38;35.80;60.60
33715;DHT22;20043;50.998;4.754;2022-07-18T13:29:04;36.00;56.70
33715;DHT22;20043;50.998;4.754;2022-07-18T13:31:30;36.00;54.70
33715;DHT22;20043;50.998;4.754;2022-07-18T13:33:56;36.00;55.30
33715;DHT22;20043;50.998;4.754;2022-07-18T13:36:22;36.00;55.30
33715;DHT22;20043;50.998;4.754;2022-07-18T13:38:48;36.00;55.00
33715;DHT22;20043;50.998;4.754;2022-07-18T13:41:14;36.00;54.70
33715;DHT22;20043;50.998;4.754;2022-07-18T13:43:40;35.90;54.90
33715;DHT22;20043;50.998;4.754;2022-07-18T13:46:10;35.80;56.20
33715;DHT22;20043;50.998;4.754;2022-07-18T13:48:36;35.80;55.10
33715;DHT22;20043;50.998;4.754;2022-07-18T13:51:03;35.90;56.50
33715;DHT22;20043;50.998;4.754;2022-07-18T13:53:29;35.90;54.00
33715;DHT22;20043;50.998;4.754;2022-07-18T13:55:54;35.80;53.90
33715;DHT22;20043;50.998;4.754;2022-07-18T13:58:20;35.80;53.20
33715;DHT22;20043;50.998;4.754;2022-07-18T14:00:46;35.80;55.10
33715;DHT22;20043;50.998;4.754;2022-07-18T14:03:11;35.80;54.80
33715;DHT22;20043;50.998;4.754;2022-07-18T14:05:38;35.90;52.40
33715;DHT22;20043;50.998;4.754;2022-07-18T14:08:05;35.90;52.80
33715;DHT22;20043;50.998;4.754;2022-07-18T14:10:31;36.00;53.70
33715;DHT22;20043;50.998;4.754;2022-07-18T14:12:57;35.90;54.90
33715;DHT22;20043;50.998;4.754;2022-07-18T14:15:22;35.90;54.30
33715;DHT22;20043;50.998;4.754;2022-07-18T14:17:48;36.00;50.90
33715;DHT22;20043;50.998;4.754;2022-07-18T14:20:14;36.10;53.30
33715;DHT22;20043;50.998;4.754;2022-07-18T14:22:41;36.20;54.60
33715;DHT22;20043;50.998;4.754;2022-07-18T14:25:09;36.20;51.50
33715;DHT22;20043;50.998;4.754;2022-07-18T14:27:35;36.20;52.20
33715;DHT22;20043;50.998;4.754;2022-07-18T14:30:01;36.20;52.90
33715;DHT22;20043;50.998;4.754;2022-07-18T14:32:27;36.20;52.20
33715;DHT22;20043;50.998;4.754;2022-07-18T14:34:53;36.20;53.00
33715;DHT22;20043;50.998;4.754;2022-07-18T14:37:19;36.30;53.70
33715;DHT22;20043;50.998;4.754;2022-07-18T14:39:44;36.30;52.90
33715;DHT22;20043;50.998;4.754;2022-07-18T14:42:10;36.40;53.30
33715;DHT22;20043;50.998;4.754;2022-07-18T14:44:37;36.40;53.60
33715;DHT22;20043;50.998;4.754;2022-07-18T14:47:03;36.40;53.40
33715;DHT22;20043;50.998;4.754;2022-07-18T14:49:29;36.20;50.80
33715;DHT22;20043;50.998;4.754;2022-07-18T14:51:54;36.30;55.00
33715;DHT22;20043;50.998;4.754;2022-07-18T14:54:20;36.30;51.80
33715;DHT22;20043;50.998;4.754;2022-07-18T14:56:46;36.40;51.00
33715;DHT22;20043;50.998;4.754;2022-07-18T14:59:11;36.50;51.30
33715;DHT22;20043;50.998;4.754;2022-07-18T15:01:37;36.50;49.70
33715;DHT22;20043;50.998;4.754;2022-07-18T15:04:02;36.40;50.80
33715;DHT22;20043;50.998;4.754;2022-07-18T15:06:28;36.40;51.30
33715;DHT22;20043;50.998;4.754;2022-07-18T15:08:54;36.40;51.20
33715;DHT22;20043;50.998;4.754;2022-07-18T15:11:19;36.50;53.80
33715;DHT22;20043;50.998;4.754;2022-07-18T15:13:49;36.60;52.20
33715;DHT22;20043;50.998;4.754;2022-07-18T15:16:16;36.40;51.20
33715;DHT22;20043;50.998;4.754;2022-07-18T15:18:42;36.50;51.50
33715;DHT22;20043;50.998;4.754;2022-07-18T15:21:07;36.60;50.30
33715;DHT22;20043;50.998;4.754;2022-07-18T15:23:33;36.60;51.80
33715;DHT22;20043;50.998;4.754;2022-07-18T15:25:58;36.60;49.00
33715;DHT22;20043;50.998;4.754;2022-07-18T15:28:24;36.60;49.60
33715;DHT22;20043;50.998;4.754;2022-07-18T15:30:50;36.60;49.70
33715;DHT22;20043;50.998;4.754;2022-07-18T15:33:16;36.70;50.50
33715;DHT22;20043;50.998;4.754;2022-07-18T15:35:42;36.80;50.80
33715;DHT22;20043;50.998;4.754;2022-07-18T15:38:08;36.80;50.50
33715;DHT22;20043;50.998;4.754;2022-07-18T15:40:34;36.80;54.10
33715;DHT22;20043;50.998;4.754;2022-07-18T15:43:00;36.90;52.60
33715;DHT22;20043;50.998;4.754;2022-07-18T15:45:25;37.10;51.40
33715;DHT22;20043;50.998;4.754;2022-07-18T15:47:51;37.20;52.60
33715;DHT22;20043;50.998;4.754;2022-07-18T15:50:17;37.30;52.90
33715;DHT22;20043;50.998;4.754;2022-07-18T15:52:43;37.30;49.80
33715;DHT22;20043;50.998;4.754;2022-07-18T15:55:09;36.80;52.30
33715;DHT22;20043;50.998;4.754;2022-07-18T15:57:35;36.80;52.50
33715;DHT22;20043;50.998;4.754;2022-07-18T16:00:00;37.00;49.70
33715;DHT22;20043;50.998;4.754;2022-07-18T16:02:26;36.80;51.40
33715;DHT22;20043;50.998;4.754;2022-07-18T16:04:52;36.80;51.60
33715;DHT22;20043;50.998;4.754;2022-07-18T16:07:17;36.90;50.80
33715;DHT22;20043;50.998;4.754;2022-07-18T16:09:43;37.10;48.60
33715;DHT22;20043;50.998;4.754;2022-07-18T16:12:09;37.10;51.90
33715;DHT22;20043;50.998;4.754;2022-07-18T16:14:34;37.10;49.50
33715;DHT22;20043;50.998;4.754;2022-07-18T16:17:00;37.10;47.80
33715;DHT22;20043;50.998;4.754;2022-07-18T16:19:26;37.10;47.60
33715;DHT22;20043;50.998;4.754;2022-07-18T16:21:52;37.20;49.00
33715;DHT22;20043;50.998;4.754;2022-07-18T16:24:18;36.90;50.70
33715;DHT22;20043;50.998;4.754;2022-07-18T16:26:43;36.80;48.70